createdAt,value
2022-12-01T00:02:06.917Z,4.84
2022-12-01T00:04:51.879Z,4.87
2022-12-01T00:07:36.804Z,4.32
2022-12-01T00:10:21.754Z,4.40
2022-12-01T00:13:06.641Z,4.36
2022-12-01T00:15:51.553Z,4.42
2022-12-01T00:18:36.429Z,4.59
2022-12-01T00:21:21.308Z,4.59
2022-12-01T00:24:06.127Z,4.71
2022-12-01T00:26:51.158Z,4.57
2022-12-01T00:29:36.080Z,4.69
2022-12-01T00:32:20.995Z,4.54
2022-12-01T00:35:06.005Z,4.60
2022-12-01T00:37:50.882Z,4.22
2022-12-01T00:40:35.831Z,4.42
2022-12-01T00:43:20.653Z,4.47
2022-12-01T00:46:05.775Z,4.78
2022-12-01T00:48:50.728Z,4.53
2022-12-01T00:51:35.719Z,4.53
2022-12-01T00:54:20.626Z,4.38
2022-12-01T00:57:05.749Z,4.41
2022-12-01T00:59:50.989Z,4.11
2022-12-01T01:02:36.148Z,4.22
2022-12-01T01:05:21.239Z,4.30
2022-12-01T01:08:06.156Z,4.60
2022-12-01T01:10:51.027Z,4.43
2022-12-01T01:13:35.825Z,4.36
2022-12-01T01:16:20.784Z,3.99
2022-12-01T01:19:05.561Z,3.81
2022-12-01T01:21:50.405Z,4.00
2022-12-01T01:24:35.458Z,4.08
2022-12-01T01:27:20.330Z,4.26
2022-12-01T01:30:05.240Z,4.08
2022-12-01T01:32:50.149Z,4.58
2022-12-01T01:35:35.057Z,4.32
2022-12-01T01:38:19.929Z,4.23
2022-12-01T01:41:04.949Z,4.08
2022-12-01T01:43:49.832Z,4.69
2022-12-01T01:46:34.807Z,4.62
2022-12-01T01:49:20.188Z,4.67
2022-12-01T01:52:05.140Z,4.82
2022-12-01T01:54:50.049Z,4.61
2022-12-01T01:57:34.971Z,4.63
2022-12-01T02:00:19.859Z,4.00
2022-12-01T02:03:04.725Z,4.17
2022-12-01T02:05:49.717Z,4.33
2022-12-01T02:08:34.625Z,4.68
2022-12-01T02:11:19.394Z,4.18
2022-12-01T02:14:04.426Z,4.47
2022-12-01T02:16:49.380Z,4.37
2022-12-01T02:19:34.249Z,4.36
2022-12-01T02:22:19.112Z,4.22
2022-12-01T02:25:03.956Z,4.37
2022-12-01T02:27:48.833Z,4.19
2022-12-01T02:30:33.683Z,4.40
2022-12-01T02:33:18.623Z,4.59
2022-12-01T02:36:03.525Z,4.31
2022-12-01T02:38:48.434Z,4.22
2022-12-01T02:41:33.373Z,4.20
2022-12-01T02:44:18.321Z,4.55
2022-12-01T02:47:03.158Z,4.53
2022-12-01T02:49:48.546Z,4.35
2022-12-01T02:52:33.976Z,4.31
2022-12-01T02:55:18.945Z,4.21
2022-12-01T02:58:04.084Z,4.26
2022-12-01T03:00:48.884Z,4.57
2022-12-01T03:03:33.956Z,4.60
2022-12-01T03:06:18.779Z,4.41
2022-12-01T03:09:03.634Z,4.65
2022-12-01T03:11:48.404Z,4.55
2022-12-01T03:14:33.361Z,4.26
2022-12-01T03:17:18.136Z,4.47
2022-12-01T03:20:03.042Z,4.56
2022-12-01T03:22:47.930Z,4.66
2022-12-01T03:25:32.861Z,4.62
2022-12-01T03:28:22.096Z,4.83
2022-12-01T03:31:07.751Z,4.52
2022-12-01T03:33:52.616Z,4.35
2022-12-01T03:36:37.531Z,4.66
2022-12-01T03:39:22.368Z,3.99
2022-12-01T03:42:07.281Z,4.45
2022-12-01T03:44:52.120Z,4.61
2022-12-01T03:47:37.065Z,4.61
2022-12-01T03:50:21.973Z,4.75
2022-12-01T03:53:06.857Z,4.42
2022-12-01T03:55:51.714Z,4.56
2022-12-01T03:58:36.671Z,4.67
2022-12-01T04:01:21.614Z,4.51
2022-12-01T04:04:06.559Z,4.17
2022-12-01T04:06:51.563Z,4.04
2022-12-01T04:09:36.483Z,4.11
2022-12-01T04:12:21.539Z,4.33
2022-12-01T04:15:06.504Z,4.34
2022-12-01T04:17:51.420Z,4.46
2022-12-01T04:20:36.474Z,4.70
2022-12-01T04:23:21.338Z,4.89
2022-12-01T04:26:09.992Z,4.70
2022-12-01T04:28:57.856Z,4.43
2022-12-01T04:31:42.740Z,4.94
2022-12-01T04:34:27.563Z,4.73
2022-12-01T04:37:12.482Z,4.76
2022-12-01T04:39:57.373Z,4.72
2022-12-01T04:45:27.066Z,4.43
2022-12-01T04:48:11.992Z,4.38
2022-12-01T04:50:56.917Z,4.48
2022-12-01T04:53:42.116Z,4.18
2022-12-01T04:56:26.946Z,4.52
2022-12-01T04:59:11.761Z,4.51
2022-12-01T05:01:56.632Z,4.54
2022-12-01T05:04:41.572Z,3.97
2022-12-01T05:07:26.521Z,4.20
2022-12-01T05:10:11.325Z,4.16
2022-12-01T05:12:56.360Z,4.14
2022-12-01T05:15:41.245Z,4.60
2022-12-01T05:18:26.291Z,4.44
2022-12-01T05:21:11.329Z,4.48
2022-12-01T05:23:56.242Z,4.21
2022-12-01T05:26:41.318Z,4.65
2022-12-01T05:29:26.188Z,4.25
2022-12-01T05:32:11.111Z,4.64
2022-12-01T05:34:56.057Z,4.51
2022-12-01T05:37:41.294Z,4.69
2022-12-01T05:40:26.115Z,4.20
2022-12-01T05:43:11.087Z,4.12
2022-12-01T05:45:56.055Z,4.14
2022-12-01T05:48:41.445Z,4.10
2022-12-01T05:51:26.215Z,4.31
2022-12-01T05:54:11.152Z,4.32
2022-12-01T05:56:56.265Z,3.99
2022-12-01T05:59:41.085Z,4.10
2022-12-01T06:02:26.204Z,4.21
2022-12-01T06:05:11.059Z,4.14
2022-12-01T06:07:56.004Z,4.38
2022-12-01T06:10:40.756Z,4.39
2022-12-01T06:13:25.692Z,4.30
2022-12-01T06:16:10.595Z,4.30
2022-12-01T06:18:55.514Z,4.42
2022-12-01T06:21:40.379Z,3.88
2022-12-01T06:24:25.173Z,4.54
2022-12-01T06:27:10.205Z,4.46
2022-12-01T06:29:55.154Z,4.28
2022-12-01T06:32:40.294Z,4.41
2022-12-01T06:35:25.242Z,4.37
2022-12-01T06:38:10.598Z,4.17
2022-12-01T06:40:55.996Z,4.33
2022-12-01T06:43:40.910Z,4.16
2022-12-01T06:46:26.081Z,4.24
2022-12-01T06:49:11.299Z,4.46
2022-12-01T06:51:56.304Z,4.42
2022-12-01T06:54:41.225Z,4.31
2022-12-01T06:57:26.655Z,4.19
2022-12-01T07:00:12.033Z,4.16
2022-12-01T07:02:57.463Z,4.33
2022-12-01T07:05:42.293Z,4.27
2022-12-01T07:08:27.145Z,4.32
2022-12-01T07:11:12.069Z,4.54
2022-12-01T07:13:56.939Z,4.59
2022-12-01T07:16:41.840Z,4.34
2022-12-01T07:19:26.564Z,4.27
2022-12-01T07:22:11.322Z,4.26
2022-12-01T07:24:56.313Z,4.14
2022-12-01T07:27:41.233Z,4.48
2022-12-01T07:30:28.637Z,4.28
2022-12-01T07:33:13.598Z,4.42
2022-12-01T07:35:58.819Z,4.53
2022-12-01T07:38:43.804Z,4.81
2022-12-01T07:41:28.538Z,4.27
2022-12-01T07:44:13.640Z,4.79
2022-12-01T07:46:58.453Z,4.80
2022-12-01T07:49:43.499Z,4.70
2022-12-01T07:52:28.377Z,4.61
2022-12-01T07:55:13.242Z,4.74
2022-12-01T07:57:57.946Z,4.72
2022-12-01T08:00:42.955Z,4.90
2022-12-01T08:03:27.781Z,4.55
2022-12-01T08:06:12.635Z,4.44
2022-12-01T08:08:57.698Z,4.73
2022-12-01T08:11:42.440Z,4.72
2022-12-01T08:14:27.381Z,4.93
2022-12-01T08:17:12.210Z,4.96
2022-12-01T08:19:57.122Z,4.97
2022-12-01T08:22:41.968Z,5.08
2022-12-01T08:25:26.960Z,4.63
2022-12-01T08:28:11.893Z,5.00
2022-12-01T08:30:56.988Z,4.61
2022-12-01T08:33:41.862Z,4.98
2022-12-01T08:36:26.676Z,5.05
2022-12-01T08:39:11.705Z,5.36
2022-12-01T08:41:56.489Z,5.46
2022-12-01T08:44:41.433Z,5.71
2022-12-01T08:47:26.666Z,5.36
2022-12-01T08:50:11.546Z,5.62
2022-12-01T08:52:56.493Z,5.29
2022-12-01T08:55:41.302Z,5.78
2022-12-01T08:58:26.276Z,5.87
2022-12-01T09:01:11.148Z,5.75
2022-12-01T09:03:56.257Z,5.54
2022-12-01T09:06:41.109Z,5.85
2022-12-01T09:09:26.072Z,6.31
2022-12-01T09:12:10.832Z,5.73
2022-12-01T09:14:55.913Z,5.62
2022-12-01T09:17:40.708Z,5.59
2022-12-01T09:20:25.536Z,5.54
2022-12-01T09:23:10.431Z,5.59
2022-12-01T09:25:55.271Z,5.91
2022-12-01T09:28:40.269Z,6.43
2022-12-01T09:31:25.273Z,6.51
2022-12-01T09:34:10.184Z,6.20
2022-12-01T09:36:55.018Z,6.60
2022-12-01T09:39:39.924Z,6.33
2022-12-01T09:42:24.723Z,5.94
2022-12-01T09:45:09.556Z,6.22
2022-12-01T09:47:54.439Z,5.05
2022-12-01T09:50:39.232Z,5.86
2022-12-01T09:53:24.178Z,6.49
2022-12-01T09:56:12.925Z,6.34
2022-12-01T09:58:58.087Z,6.20
2022-12-01T10:01:42.952Z,6.58
2022-12-01T10:04:27.824Z,6.33
2022-12-01T10:07:12.736Z,6.53
2022-12-01T10:09:57.478Z,6.84
2022-12-01T10:12:42.500Z,6.44
2022-12-01T10:15:27.369Z,6.73
2022-12-01T10:18:12.349Z,7.00
2022-12-01T10:20:57.331Z,6.60
2022-12-01T10:23:42.088Z,6.95
2022-12-01T10:26:27.159Z,6.83
2022-12-01T10:29:12.025Z,6.47
2022-12-01T10:31:57.203Z,6.78
2022-12-01T10:34:42.388Z,6.82
2022-12-01T10:37:27.458Z,6.84
2022-12-01T10:40:12.415Z,6.84
2022-12-01T10:42:57.478Z,7.25
2022-12-01T10:45:42.443Z,7.14
2022-12-01T10:48:27.957Z,7.37
2022-12-01T10:51:12.920Z,7.06
2022-12-01T10:53:57.916Z,7.10
2022-12-01T10:56:42.878Z,7.32
2022-12-01T10:59:27.688Z,6.96
2022-12-01T11:02:12.879Z,6.91
2022-12-01T11:04:57.952Z,7.08
2022-12-01T11:07:42.927Z,7.16
2022-12-01T11:10:27.769Z,6.67
2022-12-01T11:13:12.668Z,6.91
2022-12-01T11:15:57.675Z,6.73
2022-12-01T11:18:42.776Z,6.72
2022-12-01T11:21:27.608Z,7.31
2022-12-01T11:24:12.662Z,6.99
2022-12-01T11:26:57.950Z,7.26
2022-12-01T11:29:43.121Z,7.28
2022-12-01T11:32:27.844Z,7.67
2022-12-01T11:35:12.709Z,7.22
2022-12-01T11:38:28.189Z,7.20
2022-12-01T11:41:02.924Z,7.19
2022-12-01T11:44:00.813Z,7.10
2022-12-01T11:46:55.781Z,7.20
2022-12-01T11:49:52.409Z,7.20
2022-12-01T11:52:37.480Z,7.14
2022-12-01T11:55:22.381Z,7.37
2022-12-01T11:58:07.613Z,7.80
2022-12-01T12:00:52.490Z,7.99
2022-12-01T12:03:37.437Z,8.08
2022-12-01T12:09:27.229Z,7.59
2022-12-01T12:12:12.381Z,7.65
2022-12-01T12:14:57.022Z,7.50
2022-12-01T12:17:41.962Z,7.50
2022-12-01T12:20:26.760Z,7.62
2022-12-01T12:23:11.719Z,7.52
2022-12-01T12:25:56.506Z,7.48
2022-12-01T12:28:41.451Z,7.23
2022-12-01T12:31:26.397Z,7.63
2022-12-01T12:34:11.721Z,7.94
2022-12-01T12:36:56.767Z,7.89
2022-12-01T12:39:41.720Z,7.85
2022-12-01T12:42:26.617Z,7.88
2022-12-01T12:45:11.386Z,8.00
2022-12-01T12:47:56.414Z,8.39
2022-12-01T12:50:41.167Z,8.56
2022-12-01T12:53:25.949Z,8.08
2022-12-01T12:56:10.964Z,8.41
2022-12-01T12:58:55.703Z,8.15
2022-12-01T13:01:40.906Z,8.30
2022-12-01T13:04:25.751Z,8.16
2022-12-01T13:07:10.781Z,8.59
2022-12-01T13:09:57.481Z,8.07
2022-12-01T13:12:45.514Z,8.67
2022-12-01T13:15:30.403Z,8.06
2022-12-01T13:18:15.161Z,8.18
2022-12-01T13:21:00.020Z,8.41
2022-12-01T13:23:44.925Z,7.51
2022-12-01T13:26:30.076Z,8.04
2022-12-01T13:29:15.067Z,8.01
2022-12-01T13:31:59.957Z,7.80
2022-12-01T13:34:45.105Z,7.95
2022-12-01T13:37:29.880Z,7.95
2022-12-01T13:40:14.841Z,7.55
2022-12-01T13:42:59.517Z,7.60
2022-12-01T13:45:44.297Z,7.70
2022-12-01T13:48:29.204Z,7.74
2022-12-01T13:51:14.329Z,7.47
2022-12-01T13:53:59.191Z,7.24
2022-12-01T13:57:03.682Z,7.44
2022-12-01T13:59:49.073Z,7.17
2022-12-01T14:02:34.426Z,7.24
2022-12-01T14:05:19.832Z,7.52
2022-12-01T14:08:04.858Z,7.34
2022-12-01T14:10:50.045Z,7.25
2022-12-01T14:13:35.040Z,6.89
2022-12-01T14:16:20.132Z,6.60
2022-12-01T14:19:05.065Z,6.34
2022-12-01T14:21:49.903Z,6.92
2022-12-01T14:24:34.768Z,6.91
2022-12-01T14:27:19.735Z,7.09
2022-12-01T14:30:04.706Z,6.58
2022-12-01T14:32:49.699Z,6.30
2022-12-01T14:35:34.562Z,5.88
2022-12-01T14:38:19.621Z,6.24
2022-12-01T14:41:04.522Z,5.55
2022-12-01T14:43:49.422Z,6.03
2022-12-01T14:46:34.392Z,6.42
2022-12-01T14:49:19.289Z,6.48
2022-12-01T14:52:04.614Z,6.49
2022-12-01T14:54:49.752Z,6.49
2022-12-01T14:57:34.979Z,6.69
2022-12-01T15:00:19.880Z,6.87
2022-12-01T15:03:04.925Z,6.32
2022-12-01T15:05:49.851Z,6.14
2022-12-01T15:08:49.311Z,5.92
2022-12-01T15:11:40.002Z,5.74
2022-12-01T15:14:24.847Z,6.09
2022-12-01T15:17:09.908Z,6.03
2022-12-01T15:19:54.836Z,6.27
2022-12-01T15:22:39.793Z,6.21
2022-12-01T15:25:24.671Z,6.39
2022-12-01T15:28:09.480Z,6.39
2022-12-01T15:30:54.373Z,6.15
2022-12-01T15:33:39.155Z,5.87
2022-12-01T15:36:24.098Z,6.03
2022-12-01T15:39:09.132Z,6.20
2022-12-01T15:41:54.129Z,6.18
2022-12-01T15:44:39.505Z,5.97
2022-12-01T15:47:24.329Z,6.07
2022-12-01T15:50:09.496Z,5.70
2022-12-01T15:52:54.282Z,6.03
2022-12-01T15:55:39.236Z,6.31
2022-12-01T15:58:24.084Z,6.21
2022-12-01T16:01:09.199Z,5.85
2022-12-01T16:03:54.047Z,5.99
2022-12-01T16:06:39.006Z,6.10
2022-12-01T16:09:23.967Z,5.74
2022-12-01T16:12:08.775Z,5.92
2022-12-01T16:14:53.837Z,5.92
2022-12-01T16:17:38.582Z,5.90
2022-12-01T16:20:23.573Z,5.71
2022-12-01T16:23:08.574Z,5.65
2022-12-01T16:25:57.801Z,5.69
2022-12-01T16:28:45.603Z,5.61
2022-12-01T16:31:30.448Z,5.87
2022-12-01T16:34:43.980Z,5.90
2022-12-01T16:37:20.967Z,5.57
2022-12-01T16:40:05.987Z,5.86
2022-12-01T16:42:51.066Z,5.85
2022-12-01T16:45:36.080Z,5.77
2022-12-01T16:48:20.995Z,5.65
2022-12-01T16:51:06.541Z,5.10
2022-12-01T16:53:51.479Z,4.74
2022-12-01T16:56:36.424Z,5.35
2022-12-01T16:59:21.229Z,5.28
2022-12-01T17:02:06.191Z,5.12
2022-12-01T17:04:51.340Z,5.24
2022-12-01T17:07:36.479Z,5.40
2022-12-01T17:10:21.354Z,5.27
2022-12-01T17:13:06.329Z,5.45
2022-12-01T17:15:51.244Z,5.44
2022-12-01T17:18:35.971Z,5.75
2022-12-01T17:21:21.124Z,5.30
2022-12-01T17:24:05.916Z,5.29
2022-12-01T17:26:50.757Z,5.01
2022-12-01T17:29:35.660Z,5.35
2022-12-01T17:32:20.632Z,5.40
2022-12-01T17:35:05.632Z,5.47
2022-12-01T17:37:50.456Z,5.57
2022-12-01T17:40:35.455Z,5.64
2022-12-01T17:43:20.246Z,5.82
2022-12-01T17:46:05.217Z,5.41
2022-12-01T17:48:50.202Z,5.51
2022-12-01T17:51:35.100Z,5.15
2022-12-01T17:54:20.203Z,5.22
2022-12-01T17:57:05.072Z,5.45
2022-12-01T17:59:49.932Z,5.62
2022-12-01T18:02:34.845Z,5.31
2022-12-01T18:05:19.678Z,5.36
2022-12-01T18:08:04.481Z,5.42
2022-12-01T18:10:49.571Z,4.66
2022-12-01T18:13:34.452Z,5.45
2022-12-01T18:16:19.310Z,5.47
2022-12-01T18:19:04.297Z,4.99
2022-12-01T18:21:49.240Z,4.75
2022-12-01T18:24:34.100Z,4.58
2022-12-01T18:27:18.898Z,4.69
2022-12-01T18:30:03.816Z,4.72
2022-12-01T18:32:48.694Z,4.63
2022-12-01T18:35:33.517Z,4.94
2022-12-01T18:38:18.453Z,4.91
2022-12-01T18:41:03.401Z,5.18
2022-12-01T18:43:48.301Z,5.48
2022-12-01T18:46:33.171Z,5.45
2022-12-01T18:49:18.010Z,5.33
2022-12-01T18:52:02.813Z,5.55
2022-12-01T18:54:47.743Z,5.42
2022-12-01T18:57:32.946Z,5.15
2022-12-01T19:00:17.965Z,5.14
2022-12-01T19:03:02.795Z,5.30
2022-12-01T19:05:47.714Z,5.78
2022-12-01T19:08:32.726Z,5.57
2022-12-01T19:11:17.613Z,5.75
2022-12-01T19:14:02.488Z,5.66
2022-12-01T19:16:47.533Z,4.96
2022-12-01T19:19:37.190Z,4.94
2022-12-01T19:22:22.953Z,4.50
2022-12-01T19:25:07.649Z,5.26
2022-12-01T19:27:52.711Z,4.57
2022-12-01T19:30:37.617Z,4.38
2022-12-01T19:33:22.548Z,4.98
2022-12-01T19:36:07.366Z,4.73
2022-12-01T19:38:52.141Z,5.19
2022-12-01T19:41:37.134Z,5.41
2022-12-01T19:44:22.103Z,5.65
2022-12-01T19:47:07.070Z,5.69
2022-12-01T19:49:51.948Z,5.43
2022-12-01T19:52:37.060Z,5.47
2022-12-01T19:55:22.285Z,5.47
2022-12-01T19:58:07.333Z,5.40
2022-12-01T20:00:52.163Z,5.16
2022-12-01T20:03:37.064Z,5.36
2022-12-01T20:06:22.015Z,4.14
2022-12-01T20:09:06.885Z,3.64
2022-12-01T20:11:51.892Z,3.58
2022-12-01T20:14:36.722Z,4.09
2022-12-01T20:17:21.706Z,4.99
2022-12-01T20:20:06.621Z,4.91
2022-12-01T20:22:51.500Z,5.18
2022-12-01T20:25:36.468Z,5.11
2022-12-01T20:28:21.233Z,5.50
2022-12-01T20:31:06.526Z,5.37
2022-12-01T20:33:51.487Z,5.48
2022-12-01T20:36:36.477Z,5.11
2022-12-01T20:39:21.718Z,5.07
2022-12-01T20:42:06.602Z,5.47
2022-12-01T20:44:51.860Z,4.66
2022-12-01T20:47:36.968Z,4.81
2022-12-01T20:50:21.978Z,5.09
2022-12-01T20:53:06.859Z,5.03
2022-12-01T20:55:51.861Z,5.15
2022-12-01T20:58:37.992Z,4.93
2022-12-01T21:01:23.391Z,5.23
2022-12-01T21:04:08.143Z,5.40
2022-12-01T21:06:53.085Z,5.30
2022-12-01T21:09:37.961Z,4.67
2022-12-01T21:12:22.797Z,5.06
2022-12-01T21:15:07.648Z,5.26
2022-12-01T21:17:52.669Z,4.25
2022-12-01T21:20:37.650Z,4.97
2022-12-01T21:23:22.510Z,5.12
2022-12-01T21:26:07.437Z,5.30
2022-12-01T21:28:52.422Z,5.41
2022-12-01T21:31:37.860Z,5.47
2022-12-01T21:34:22.902Z,5.36
2022-12-01T21:37:07.647Z,5.13
2022-12-01T21:39:52.556Z,5.04
2022-12-01T21:42:37.422Z,5.17
2022-12-01T21:45:22.361Z,5.20
2022-12-01T21:48:07.153Z,5.35
2022-12-01T21:50:54.102Z,5.09
2022-12-01T21:53:39.241Z,5.12
2022-12-01T21:56:24.141Z,5.09
2022-12-01T21:59:09.026Z,4.99
2022-12-01T22:01:53.999Z,4.70
2022-12-01T22:04:38.928Z,4.83
2022-12-01T22:07:23.997Z,5.16
2022-12-01T22:10:09.358Z,5.04
2022-12-01T22:12:54.346Z,4.97
2022-12-01T22:15:39.254Z,4.20
2022-12-01T22:18:25.053Z,4.18
2022-12-01T22:21:10.062Z,3.94
2022-12-01T22:23:54.988Z,4.10
2022-12-01T22:26:39.886Z,3.62
2022-12-01T22:29:24.941Z,3.81
2022-12-01T22:32:09.886Z,4.55
2022-12-01T22:34:54.869Z,4.67
2022-12-01T22:37:39.948Z,4.42
2022-12-01T22:40:24.740Z,4.37
2022-12-01T22:43:13.908Z,4.46
2022-12-01T22:45:59.576Z,4.69
2022-12-01T22:48:44.768Z,4.63
2022-12-01T22:51:29.722Z,4.46
2022-12-01T22:54:14.605Z,4.33
2022-12-01T22:56:59.589Z,4.97
2022-12-01T22:59:44.501Z,5.17
2022-12-01T23:02:29.457Z,5.36
2022-12-01T23:05:14.350Z,5.28
2022-12-01T23:07:59.196Z,5.28
2022-12-01T23:10:44.595Z,5.42
2022-12-01T23:13:29.261Z,5.44
2022-12-01T23:16:14.407Z,5.54
2022-12-01T23:18:59.787Z,5.20
2022-12-01T23:21:44.625Z,5.33
2022-12-01T23:24:33.725Z,5.46
2022-12-01T23:27:19.392Z,5.43
2022-12-01T23:30:04.322Z,5.06
2022-12-01T23:32:49.184Z,5.30
2022-12-01T23:35:34.098Z,5.15
2022-12-01T23:38:19.310Z,5.09
2022-12-01T23:41:04.125Z,5.18
2022-12-01T23:43:49.034Z,5.27
2022-12-01T23:46:33.996Z,5.38
2022-12-01T23:49:18.881Z,4.79
2022-12-01T23:52:03.695Z,4.52
2022-12-01T23:54:48.997Z,4.98
2022-12-01T23:57:34.796Z,5.33
